Time;durP1;ratioP1;P1;durP2;ratioP2;P2;SDS_P1;SDS_P2;PMS_P1;PMS_P2;Temp;Humidity;BMP_temperature;BMP_pressure;BME280_temperature;BME280_humidity;BME280_pressure;Samples;Min_cycle;Max_cycle;Signal;HPM_P1;HPM_P2
2023/04/18 00:01:44;;;;;;;14.95;8.90;;;8.80;77.80;;;;;;5073590;28;20095;-71
2023/04/18 00:04:10;;;;;;;13.82;8.13;;;8.70;78.00;;;;;;5073571;28;20053;-71
2023/04/18 00:06:36;;;;;;;12.93;8.30;;;8.70;78.40;;;;;;5073581;28;20573;-71
2023/04/18 00:09:02;;;;;;;12.40;8.25;;;8.70;78.40;;;;;;5073817;28;20120;-71
2023/04/18 00:11:29;;;;;;;12.82;8.18;;;8.60;78.30;;;;;;5073412;28;20052;-71
2023/04/18 00:13:56;;;;;;;12.93;8.52;;;8.60;78.60;;;;;;5073441;28;20059;-71
2023/04/18 00:16:23;;;;;;;15.77;8.63;;;8.60;78.90;;;;;;5073418;28;20048;-71
2023/04/18 00:18:48;;;;;;;14.63;8.82;;;8.50;79.10;;;;;;5073582;28;20040;-71
2023/04/18 00:21:16;;;;;;;11.57;8.02;;;8.50;79.50;;;;;;5073220;28;20412;-71
2023/04/18 00:23:42;;;;;;;10.55;8.10;;;8.50;79.80;;;;;;5073169;28;20087;-71
2023/04/18 00:26:08;;;;;;;11.80;8.05;;;8.50;79.90;;;;;;5073424;28;20080;-71
2023/04/18 00:28:33;;;;;;;15.70;7.93;;;8.50;80.30;;;;;;5073152;28;20413;-71
2023/04/18 00:30:59;;;;;;;13.23;7.53;;;8.50;80.40;;;;;;5073055;28;20071;-71
2023/04/18 00:33:25;;;;;;;13.05;7.78;;;8.40;80.60;;;;;;5073037;28;20044;-71
2023/04/18 00:35:53;;;;;;;13.73;8.23;;;8.40;81.00;;;;;;5074223;28;20078;-71
2023/04/18 00:38:18;;;;;;;11.32;7.90;;;8.30;81.20;;;;;;5056239;28;20404;-71
2023/04/18 00:40:44;;;;;;;12.70;8.35;;;8.30;81.60;;;;;;5072809;28;20043;-71
2023/04/18 00:43:12;;;;;;;10.68;8.20;;;8.30;81.70;;;;;;5072932;28;20048;-71
2023/04/18 00:45:38;;;;;;;12.63;7.70;;;8.30;82.10;;;;;;5073034;28;20112;-71
2023/04/18 00:48:03;;;;;;;14.75;7.93;;;8.30;82.00;;;;;;5072772;28;20464;-71
2023/04/18 00:50:30;;;;;;;10.52;7.47;;;8.20;82.20;;;;;;5072684;28;20041;-71
2023/04/18 00:52:55;;;;;;;11.27;7.05;;;8.20;82.50;;;;;;5072805;28;20048;-71
2023/04/18 00:55:22;;;;;;;11.57;7.35;;;8.20;82.80;;;;;;5072876;28;20048;-71
2023/04/18 00:57:48;;;;;;;11.10;7.18;;;8.20;83.00;;;;;;5071895;28;20045;-71
2023/04/18 01:00:14;;;;;;;10.73;7.15;;;8.20;83.20;;;;;;5072465;28;20040;-72
2023/04/18 01:02:40;;;;;;;10.35;7.50;;;8.20;83.40;;;;;;5072266;28;20049;-71
2023/04/18 01:05:06;;;;;;;14.05;7.05;;;8.20;83.80;;;;;;5055805;28;20043;-71
2023/04/18 01:07:36;;;;;;;12.07;7.70;;;8.10;84.10;;;;;;5072366;28;20523;-71
2023/04/18 01:10:02;;;;;;;12.40;7.80;;;8.10;84.30;;;;;;5072349;28;20047;-71
2023/04/18 01:12:28;;;;;;;11.55;7.82;;;8.10;84.50;;;;;;5072222;28;20044;-71
2023/04/18 01:14:54;;;;;;;11.60;7.53;;;8.10;84.80;;;;;;5072233;28;20120;-71
2023/04/18 01:17:21;;;;;;;12.82;7.60;;;8.00;85.00;;;;;;5072232;28;20041;-71
2023/04/18 01:19:46;;;;;;;11.93;7.68;;;8.00;85.30;;;;;;5072512;28;20036;-71
2023/04/18 01:22:16;;;;;;;11.93;7.75;;;8.00;85.50;;;;;;5072282;28;20459;-71
2023/04/18 01:24:42;;;;;;;10.38;8.20;;;7.90;85.80;;;;;;5072412;28;20050;-71
2023/04/18 01:27:10;;;;;;;11.75;7.88;;;7.90;86.20;;;;;;5072089;28;20485;-71
2023/04/18 01:29:36;;;;;;;10.40;7.43;;;7.90;86.50;;;;;;5072099;28;20039;-71
2023/04/18 01:32:01;;;;;;;11.00;8.10;;;7.90;86.70;;;;;;5073231;28;20036;-71
2023/04/18 01:34:27;;;;;;;10.77;7.28;;;7.80;86.80;;;;;;5072080;28;20045;-71
2023/04/18 01:36:52;;;;;;;8.68;7.00;;;7.80;87.50;;;;;;5072807;28;20036;-71
2023/04/18 01:39:18;;;;;;;11.63;7.82;;;7.80;88.10;;;;;;5071960;28;20040;-71
2023/04/18 01:41:44;;;;;;;13.30;8.38;;;7.80;88.30;;;;;;5071920;28;20074;-71
2023/04/18 01:44:10;;;;;;;9.50;7.70;;;7.80;88.70;;;;;;5071873;28;20045;-71
2023/04/18 01:46:35;;;;;;;11.35;7.70;;;7.80;89.00;;;;;;5071863;28;20040;-71
2023/04/18 01:49:01;;;;;;;10.48;8.32;;;7.80;89.30;;;;;;5071834;28;20123;-71
2023/04/18 01:51:27;;;;;;;13.02;7.88;;;7.70;89.50;;;;;;5071778;28;20032;-71
2023/04/18 01:53:52;;;;;;;12.93;7.18;;;7.70;89.90;;;;;;5071765;28;20053;-71
2023/04/18 01:56:18;;;;;;;10.10;7.90;;;7.60;90.10;;;;;;5071797;28;20048;-71
2023/04/18 01:58:44;;;;;;;12.05;8.20;;;7.70;90.30;;;;;;5071677;28;20127;-71
2023/04/18 02:01:09;;;;;;;12.80;8.88;;;7.60;90.30;;;;;;5071675;28;20091;-71
2023/04/18 02:03:35;;;;;;;9.85;7.95;;;7.60;90.60;;;;;;5071594;28;20094;-70
2023/04/18 02:06:02;;;;;;;10.43;7.47;;;7.60;90.80;;;;;;5072042;28;20051;-71
2023/04/18 02:08:29;;;;;;;10.77;7.85;;;7.60;90.90;;;;;;5071665;28;20043;-71
2023/04/18 02:10:55;;;;;;;12.20;7.93;;;7.60;91.20;;;;;;5073955;28;20083;-71
2023/04/18 02:13:21;;;;;;;13.98;8.07;;;7.60;91.30;;;;;;5076017;28;20072;-71
2023/04/18 02:15:46;;;;;;;12.48;8.60;;;7.60;91.50;;;;;;5076924;28;20492;-71
2023/04/18 02:18:12;;;;;;;9.68;8.00;;;7.60;91.80;;;;;;5076911;28;20041;-71
2023/04/18 02:20:38;;;;;;;11.50;8.18;;;7.60;91.90;;;;;;5075465;28;20040;-70
2023/04/18 02:23:04;;;;;;;11.45;8.30;;;7.60;92.00;;;;;;5075494;28;20076;-71
2023/04/18 02:25:30;;;;;;;10.95;8.48;;;7.60;92.20;;;;;;5075504;28;20516;-71
2023/04/18 02:27:56;;;;;;;11.88;8.07;;;7.60;92.30;;;;;;5076734;28;20049;-71
2023/04/18 02:30:22;;;;;;;11.63;8.30;;;7.60;92.50;;;;;;5076917;28;20043;-71
2023/04/18 02:32:53;;;;;;;14.93;8.88;;;7.60;92.80;;;;;;5075323;28;20404;-70
2023/04/18 02:35:19;;;;;;;12.10;8.77;;;7.60;93.00;;;;;;5075333;28;20045;-71
2023/04/18 02:37:45;;;;;;;12.90;8.82;;;7.60;93.10;;;;;;5075260;28;20489;-71
2023/04/18 02:40:11;;;;;;;15.57;8.65;;;7.60;93.30;;;;;;5075191;28;20041;-71
2023/04/18 02:42:37;;;;;;;11.52;9.10;;;7.70;93.20;;;;;;5075016;28;20055;-70
2023/04/18 02:45:03;;;;;;;10.88;9.02;;;7.70;93.20;;;;;;5075396;28;20040;-70
2023/04/18 02:47:29;;;;;;;12.07;8.82;;;7.70;93.30;;;;;;5075059;28;20049;-70
2023/04/18 02:49:55;;;;;;;13.10;9.23;;;7.70;93.70;;;;;;5075030;28;20044;-70
2023/04/18 02:52:20;;;;;;;11.90;9.00;;;7.70;93.70;;;;;;5075199;28;20043;-70
2023/04/18 02:54:46;;;;;;;13.57;9.93;;;7.70;93.80;;;;;;5074902;28;20410;-70
2023/04/18 02:57:11;;;;;;;13.80;9.50;;;7.70;94.00;;;;;;5074708;28;20052;-70
2023/04/18 02:59:37;;;;;;;12.30;9.15;;;7.70;94.10;;;;;;5074857;28;20055;-71
2023/04/18 03:02:03;;;;;;;10.27;8.40;;;7.80;94.20;;;;;;5074651;28;20090;-71
2023/04/18 03:04:28;;;;;;;13.05;9.10;;;7.70;94.30;;;;;;5074793;28;20059;-71
2023/04/18 03:06:54;;;;;;;14.88;9.10;;;7.80;94.40;;;;;;5074745;28;20062;-71
2023/04/18 03:09:20;;;;;;;11.35;9.00;;;7.70;94.50;;;;;;5074706;28;20076;-71
2023/04/18 03:11:46;;;;;;;13.13;9.57;;;7.70;94.50;;;;;;5074832;28;20087;-70
2023/04/18 03:14:12;;;;;;;11.52;8.63;;;7.70;94.70;;;;;;5074603;28;20447;-70
2023/04/18 03:16:37;;;;;;;14.93;9.35;;;7.70;94.90;;;;;;5074539;28;20047;-70
2023/04/18 03:19:03;;;;;;;12.65;9.60;;;7.70;95.00;;;;;;5074467;28;20048;-71
2023/04/18 03:21:28;;;;;;;13.77;9.30;;;7.70;95.00;;;;;;5073815;28;20044;-70
2023/04/18 03:23:54;;;;;;;11.38;9.65;;;7.70;95.30;;;;;;5074417;28;20044;-70
2023/04/18 03:26:20;;;;;;;11.65;9.20;;;7.70;95.50;;;;;;5074398;28;20489;-70
2023/04/18 03:28:45;;;;;;;12.50;8.32;;;7.70;95.50;;;;;;5075595;28;20037;-71
2023/04/18 03:31:11;;;;;;;13.88;9.68;;;7.70;95.60;;;;;;5074252;28;20144;-70
2023/04/18 03:33:38;;;;;;;11.32;8.70;;;7.60;95.60;;;;;;5074255;28;20059;-70
2023/04/18 03:36:04;;;;;;;13.07;9.70;;;7.60;95.80;;;;;;5074225;28;20052;-70
2023/04/18 03:38:30;;;;;;;13.00;8.65;;;7.60;95.80;;;;;;5074420;28;20048;-71
2023/04/18 03:40:56;;;;;;;10.93;8.68;;;7.60;96.00;;;;;;5074040;28;20044;-70
2023/04/18 03:43:21;;;;;;;11.68;9.07;;;7.60;96.00;;;;;;5073986;28;20037;-70
2023/04/18 03:45:47;;;;;;;13.00;8.73;;;7.60;96.20;;;;;;5074072;28;20050;-70
2023/04/18 03:48:13;;;;;;;12.65;8.20;;;7.60;96.20;;;;;;5073951;28;20127;-70
2023/04/18 03:50:39;;;;;;;11.77;9.43;;;7.60;96.20;;;;;;5074151;28;20102;-70
2023/04/18 03:53:05;;;;;;;12.27;8.73;;;7.70;96.30;;;;;;5073900;28;20055;-70
2023/04/18 03:55:31;;;;;;;12.40;8.02;;;7.70;96.30;;;;;;5073864;28;20045;-71
2023/04/18 03:57:59;;;;;;;11.60;8.95;;;7.70;96.40;;;;;;5073651;28;20127;-71
2023/04/18 04:00:25;;;;;;;11.57;8.95;;;7.70;96.50;;;;;;5075042;28;20051;-71
2023/04/18 04:02:51;;;;;;;12.02;7.95;;;7.70;96.60;;;;;;5057088;28;20040;-71
2023/04/18 04:05:16;;;;;;;11.80;8.13;;;7.70;96.50;;;;;;5073658;28;20493;-71
2023/04/18 04:07:42;;;;;;;11.85;8.80;;;7.60;96.70;;;;;;5073609;28;20093;-71
2023/04/18 04:10:08;;;;;;;14.68;9.20;;;7.60;96.70;;;;;;5073853;28;20037;-71
2023/04/18 04:12:34;;;;;;;14.32;8.63;;;7.60;96.80;;;;;;5073381;28;20496;-70
2023/04/18 04:15:00;;;;;;;13.23;8.80;;;7.60;97.00;;;;;;5073474;28;20044;-70
2023/04/18 04:17:25;;;;;;;12.02;8.65;;;7.60;97.00;;;;;;5074506;28;20047;-70
2023/04/18 04:19:51;;;;;;;11.80;9.15;;;7.60;97.00;;;;;;5074637;28;20540;-70
2023/04/18 04:22:17;;;;;;;13.70;9.35;;;7.60;97.30;;;;;;5073138;28;20485;-70
2023/04/18 04:24:43;;;;;;;13.15;9.07;;;7.60;97.40;;;;;;5073229;28;20044;-70
2023/04/18 04:27:09;;;;;;;11.82;8.93;;;7.50;97.60;;;;;;5074424;28;20032;-70
2023/04/18 04:29:37;;;;;;;15.60;9.52;;;7.60;97.60;;;;;;5073170;28;20041;-71
2023/04/18 04:32:04;;;;;;;13.02;8.80;;;7.50;97.70;;;;;;5072680;28;20058;-70
2023/04/18 04:34:30;;;;;;;13.07;9.27;;;7.60;97.90;;;;;;5072497;28;20041;-70
2023/04/18 04:36:56;;;;;;;12.88;9.45;;;7.50;97.90;;;;;;5073012;28;20111;-70
2023/04/18 04:39:21;;;;;;;10.93;8.75;;;7.50;98.00;;;;;;5072935;28;20079;-70
2023/04/18 04:41:48;;;;;;;13.68;9.15;;;7.50;98.10;;;;;;5072844;28;20068;-70
2023/04/18 04:44:16;;;;;;;12.88;9.10;;;7.50;98.50;;;;;;5074009;28;20468;-70
2023/04/18 04:46:43;;;;;;;13.35;8.98;;;7.50;98.30;;;;;;5074313;28;20040;-70
2023/04/18 04:49:12;;;;;;;11.98;8.70;;;7.60;98.30;;;;;;5072750;28;20094;-70
2023/04/18 04:51:39;;;;;;;10.20;8.60;;;7.60;98.30;;;;;;5072896;28;20041;-70
2023/04/18 04:54:05;;;;;;;15.05;8.82;;;7.60;98.70;;;;;;5072653;28;20097;-70
2023/04/18 04:56:31;;;;;;;10.63;8.75;;;7.60;98.50;;;;;;5072632;28;20071;-70
2023/04/18 04:58:56;;;;;;;11.95;8.48;;;7.60;98.50;;;;;;5072527;28;20047;-70
2023/04/18 05:01:22;;;;;;;11.95;9.00;;;7.60;98.40;;;;;;5072494;28;20048;-70
2023/04/18 05:03:50;;;;;;;14.48;8.48;;;7.60;98.50;;;;;;5072490;28;20067;-70
2023/04/18 05:06:19;;;;;;;12.27;8.32;;;7.60;98.50;;;;;;5072378;28;20090;-70
2023/04/18 05:08:51;;;;;;;10.52;8.30;;;7.60;98.50;;;;;;5072388;28;20441;-71
2023/04/18 05:11:16;;;;;;;12.73;7.97;;;7.70;98.40;;;;;;5072565;28;20040;-70
2023/04/18 05:13:42;;;;;;;10.82;7.95;;;7.60;98.40;;;;;;5073602;28;20513;-70
2023/04/18 05:16:08;;;;;;;12.48;8.32;;;7.70;98.50;;;;;;5072261;28;20036;-70
2023/04/18 05:18:36;;;;;;;11.85;8.82;;;7.70;98.50;;;;;;5072291;28;20045;-70
2023/04/18 05:21:02;;;;;;;12.40;8.20;;;7.70;98.50;;;;;;5073453;28;20166;-71
2023/04/18 05:23:27;;;;;;;11.48;8.43;;;7.70;98.50;;;;;;5072233;28;20054;-71
2023/04/18 05:25:53;;;;;;;11.45;8.57;;;7.70;98.50;;;;;;5072233;28;20040;-70
2023/04/18 05:28:18;;;;;;;9.32;7.70;;;7.70;98.50;;;;;;5072269;28;20072;-70
2023/04/18 05:30:44;;;;;;;11.95;8.18;;;7.70;98.50;;;;;;5072387;28;20119;-71
2023/04/18 05:33:10;;;;;;;13.93;8.70;;;7.80;98.60;;;;;;5072098;28;20036;-70
2023/04/18 05:35:35;;;;;;;10.65;8.10;;;7.80;98.50;;;;;;5072159;28;20051;-70
2023/04/18 05:38:01;;;;;;;10.52;7.93;;;7.80;98.50;;;;;;5072067;28;20161;-70
2023/04/18 05:40:27;;;;;;;10.50;8.10;;;7.80;98.50;;;;;;5072064;28;20085;-71
2023/04/18 05:42:53;;;;;;;13.05;8.23;;;7.80;98.60;;;;;;5072185;28;20213;-70
2023/04/18 05:45:18;;;;;;;12.65;8.10;;;7.80;98.50;;;;;;5071679;28;20081;-70
2023/04/18 05:47:44;;;;;;;11.60;7.72;;;7.80;98.50;;;;;;5055442;28;20045;-70
2023/04/18 05:50:10;;;;;;;12.88;8.00;;;7.90;98.50;;;;;;5073402;28;20392;-70
2023/04/18 05:52:37;;;;;;;10.57;7.60;;;7.90;98.50;;;;;;5073029;28;20083;-70
2023/04/18 05:55:04;;;;;;;12.13;8.48;;;7.90;98.60;;;;;;5072084;28;20040;-70
2023/04/18 05:57:30;;;;;;;9.95;7.72;;;8.00;98.70;;;;;;5071838;28;20047;-71
2023/04/18 05:59:56;;;;;;;11.60;8.48;;;8.00;98.70;;;;;;5071767;28;20036;-71
2023/04/18 06:02:21;;;;;;;10.52;8.20;;;8.00;98.70;;;;;;5071586;28;20045;-70
2023/04/18 06:04:47;;;;;;;11.38;8.10;;;8.00;98.60;;;;;;5071705;28;20048;-70
2023/04/18 06:07:13;;;;;;;14.82;8.45;;;8.00;98.60;;;;;;5071891;28;20040;-71
2023/04/18 06:09:39;;;;;;;11.15;8.43;;;8.00;98.70;;;;;;5072873;28;20401;-71
2023/04/18 06:12:04;;;;;;;11.10;7.97;;;8.00;98.60;;;;;;5071646;28;20036;-71
2023/04/18 06:14:30;;;;;;;17.30;8.75;;;8.00;98.50;;;;;;5071512;28;20088;-71
2023/04/18 06:16:56;;;;;;;11.23;8.15;;;8.00;98.40;;;;;;5073072;28;20116;-70
2023/04/18 06:19:22;;;;;;;13.25;8.48;;;8.10;98.40;;;;;;5071547;28;20032;-70
2023/04/18 06:21:48;;;;;;;12.77;9.23;;;8.10;98.40;;;;;;5071845;28;20041;-70
2023/04/18 06:24:13;;;;;;;11.93;8.50;;;8.20;98.30;;;;;;5071428;28;20390;-70
2023/04/18 06:26:39;;;;;;;10.98;8.85;;;8.20;98.20;;;;;;5072895;28;20082;-70
2023/04/18 06:29:05;;;;;;;12.40;8.82;;;8.30;98.20;;;;;;5071479;28;20040;-70
2023/04/18 06:31:30;;;;;;;13.88;8.73;;;8.40;98.00;;;;;;5071485;28;20146;-70
2023/04/18 06:33:56;;;;;;;11.93;9.02;;;8.40;97.80;;;;;;5071659;28;20127;-70
2023/04/18 06:36:21;;;;;;;10.50;8.38;;;8.50;97.60;;;;;;5071373;28;20493;-72
2023/04/18 06:38:47;;;;;;;13.43;8.85;;;8.60;97.50;;;;;;5071393;28;20044;-71
2023/04/18 06:41:14;;;;;;;13.45;8.93;;;8.60;97.30;;;;;;5071543;28;20045;-70
2023/04/18 06:43:40;;;;;;;14.20;8.70;;;8.60;97.10;;;;;;5071282;28;20048;-70
2023/04/18 06:46:05;;;;;;;11.50;8.75;;;8.60;97.00;;;;;;5071341;28;20052;-70
2023/04/18 06:48:31;;;;;;;13.45;9.00;;;8.70;97.20;;;;;;5071539;28;20041;-71
2023/04/18 06:50:57;;;;;;;13.40;8.15;;;8.80;97.20;;;;;;5072829;28;20033;-70
2023/04/18 06:53:22;;;;;;;13.50;8.05;;;8.80;97.00;;;;;;5071417;28;20535;-70
2023/04/18 06:55:48;;;;;;;13.93;8.70;;;8.90;96.70;;;;;;5073379;28;20098;-70
2023/04/18 06:58:15;;;;;;;16.88;9.80;;;8.90;96.50;;;;;;5076021;28;20044;-71
2023/04/18 07:00:42;;;;;;;15.13;9.57;;;9.00;96.50;;;;;;5074960;28;20083;-71
2023/04/18 07:03:11;;;;;;;17.38;7.93;;;9.10;96.40;;;;;;5075230;28;20139;-70
2023/04/18 07:05:40;;;;;;;10.60;7.65;;;9.20;96.00;;;;;;5076872;28;20083;-71
2023/04/18 07:08:05;;;;;;;10.55;7.93;;;9.20;95.50;;;;;;5074796;28;20041;-71
2023/04/18 07:10:31;;;;;;;9.77;7.53;;;9.30;95.30;;;;;;5074671;28;20052;-71
2023/04/18 07:12:57;;;;;;;8.82;7.78;;;9.40;94.80;;;;;;5057916;28;20132;-71
2023/04/18 07:15:22;;;;;;;11.88;8.07;;;9.40;94.70;;;;;;5074901;28;20045;-70
2023/04/18 07:17:48;;;;;;;13.07;8.85;;;9.40;94.40;;;;;;5076123;28;20504;-70
2023/04/18 07:20:13;;;;;;;10.45;7.10;;;9.40;94.20;;;;;;5076028;28;20397;-71
2023/04/18 07:22:40;;;;;;;13.48;7.90;;;9.40;94.00;;;;;;5074359;28;20131;-71
2023/04/18 07:25:06;;;;;;;11.10;7.22;;;9.40;93.80;;;;;;5074435;28;20052;-71
2023/04/18 07:27:34;;;;;;;11.10;7.57;;;9.40;93.70;;;;;;5075892;28;20037;-71
2023/04/18 07:30:00;;;;;;;12.68;7.57;;;9.50;93.50;;;;;;5075888;28;20054;-71
2023/04/18 07:32:26;;;;;;;12.95;7.72;;;9.50;93.20;;;;;;5074264;28;20032;-71
2023/04/18 07:34:52;;;;;;;10.30;6.85;;;9.60;92.90;;;;;;5074555;28;20028;-71
2023/04/18 07:37:20;;;;;;;9.93;7.00;;;9.70;92.60;;;;;;5074295;28;20071;-71
2023/04/18 07:39:46;;;;;;;13.27;7.15;;;9.70;92.30;;;;;;5074145;28;20045;-71
2023/04/18 07:42:12;;;;;;;9.95;7.00;;;9.90;92.20;;;;;;5074062;28;20068;-71
2023/04/18 07:44:37;;;;;;;9.30;6.40;;;10.00;91.90;;;;;;5074361;28;19964;-71
2023/04/18 07:47:05;;;;;;;12.77;7.40;;;10.10;91.50;;;;;;5074065;28;20064;-71
2023/04/18 07:49:31;;;;;;;10.05;6.50;;;10.10;91.20;;;;;;5074022;28;20051;-71
2023/04/18 07:51:56;;;;;;;9.98;6.55;;;10.20;91.20;;;;;;5073934;28;20044;-71
2023/04/18 07:54:22;;;;;;;9.05;6.05;;;10.30;91.00;;;;;;5073880;28;20044;-71
2023/04/18 07:56:47;;;;;;;8.05;5.63;;;10.40;90.50;;;;;;5073721;28;20048;-71
2023/04/18 07:59:13;;;;;;;9.98;5.68;;;10.50;90.10;;;;;;5074098;28;20044;-71
2023/04/18 08:01:39;;;;;;;9.00;6.35;;;10.50;90.00;;;;;;5075178;28;20093;-71
2023/04/18 08:04:05;;;;;;;8.90;6.53;;;10.50;89.40;;;;;;5073688;28;20182;-71
2023/04/18 08:06:30;;;;;;;10.18;7.18;;;10.70;89.40;;;;;;5073681;28;20497;-71
2023/04/18 08:08:57;;;;;;;9.30;7.03;;;10.70;88.40;;;;;;5073563;28;20036;-71
2023/04/18 08:11:23;;;;;;;8.93;6.93;;;10.80;88.20;;;;;;5073731;28;20098;-71
2023/04/18 08:13:49;;;;;;;11.90;6.25;;;10.80;87.90;;;;;;5073522;28;20493;-71
2023/04/18 08:16:15;;;;;;;9.80;7.28;;;10.90;88.10;;;;;;5073719;28;20058;-71
2023/04/18 08:18:40;;;;;;;9.13;6.85;;;11.00;88.10;;;;;;5057044;28;20404;-71
2023/04/18 08:21:06;;;;;;;10.32;6.78;;;11.00;88.10;;;;;;5056674;28;20044;-71
2023/04/18 08:23:32;;;;;;;10.95;7.22;;;11.10;87.40;;;;;;5073247;28;20044;-71
2023/04/18 08:25:57;;;;;;;9.43;7.18;;;11.20;87.20;;;;;;5073274;28;20036;-71
2023/04/18 08:28:23;;;;;;;10.90;6.93;;;11.30;87.00;;;;;;5073245;28;20109;-71
2023/04/18 08:30:50;;;;;;;10.75;7.22;;;11.50;87.10;;;;;;5073333;28;20127;-71
2023/04/18 08:33:15;;;;;;;9.00;6.88;;;11.70;86.90;;;;;;5074393;28;20119;-71
2023/04/18 08:35:41;;;;;;;9.73;7.03;;;11.90;85.90;;;;;;5073106;28;20462;-71
2023/04/18 08:38:07;;;;;;;10.05;7.05;;;12.10;85.00;;;;;;5073263;28;20063;-71
2023/04/18 08:40:33;;;;;;;13.02;6.85;;;12.20;84.70;;;;;;5073214;28;20509;-71
2023/04/18 08:43:03;;;;;;;12.27;7.20;;;12.30;84.30;;;;;;5072826;28;20077;-71
2023/04/18 08:45:30;;;;;;;8.40;6.72;;;12.30;83.30;;;;;;5072833;28;20437;-71
2023/04/18 08:48:00;;;;;;;8.10;6.88;;;12.20;83.50;;;;;;5072825;28;20417;-71
2023/04/18 08:50:26;;;;;;;9.85;6.85;;;12.10;83.60;;;;;;5073953;28;20493;-71
2023/04/18 08:52:53;;;;;;;8.30;6.47;;;12.10;84.00;;;;;;5074411;28;20536;-71
2023/04/18 08:55:21;;;;;;;10.63;6.93;;;12.20;83.90;;;;;;5072921;28;20040;-71
2023/04/18 08:57:46;;;;;;;10.82;6.63;;;12.40;83.70;;;;;;5072700;28;20036;-71
2023/04/18 09:00:13;;;;;;;9.43;6.78;;;12.50;83.50;;;;;;5072872;28;20549;-72
2023/04/18 09:02:43;;;;;;;8.80;6.50;;;12.80;84.00;;;;;;5072387;28;20055;-71
2023/04/18 09:05:13;;;;;;;8.27;6.38;;;13.10;84.00;;;;;;5072582;28;20112;-71
2023/04/18 09:07:41;;;;;;;6.43;5.75;;;13.50;83.30;;;;;;5072542;28;20072;-71
2023/04/18 09:10:08;;;;;;;8.93;5.82;;;13.70;82.10;;;;;;5072733;28;20055;-71
2023/04/18 09:12:41;;;;;;;8.60;6.35;;;13.60;81.40;;;;;;5072548;28;20049;-71
2023/04/18 09:15:14;;;;;;;8.30;5.20;;;13.80;81.40;;;;;;5072395;28;20037;-71
2023/04/18 09:17:48;;;;;;;9.23;6.07;;;13.90;80.60;;;;;;5072567;28;20041;-71
2023/04/18 09:20:34;;;;;;;9.23;5.93;;;13.80;80.00;;;;;;5072172;28;20040;-71
2023/04/18 09:23:09;;;;;;;8.27;6.13;;;13.60;79.80;;;;;;5072185;28;20119;-71
2023/04/18 09:25:48;;;;;;;8.35;6.25;;;13.50;80.00;;;;;;5072235;28;20068;-71
2023/04/18 09:28:30;;;;;;;8.40;5.75;;;13.50;80.50;;;;;;5072248;28;20044;-71
2023/04/18 09:30:57;;;;;;;6.28;5.45;;;13.50;80.60;;;;;;5072338;28;20059;-70
2023/04/18 09:33:31;;;;;;;7.65;6.13;;;13.60;80.50;;;;;;5072327;28;20129;-71
2023/04/18 09:36:16;;;;;;;6.95;5.78;;;13.70;79.70;;;;;;5072089;28;20048;-71
2023/04/18 09:38:43;;;;;;;8.38;5.80;;;13.70;79.70;;;;;;5072173;28;20048;-71
2023/04/18 09:41:14;;;;;;;9.55;6.32;;;13.90;79.80;;;;;;5072252;28;20036;-70
2023/04/18 09:43:40;;;;;;;7.32;6.10;;;14.10;78.60;;;;;;5072151;28;20040;-70
2023/04/18 09:46:08;;;;;;;9.45;5.80;;;14.10;78.90;;;;;;5071930;28;20041;-70
2023/04/18 09:48:34;;;;;;;8.60;6.03;;;14.20;78.90;;;;;;5072171;28;20059;-70
2023/04/18 09:51:09;;;;;;;8.07;6.35;;;14.30;78.30;;;;;;5073115;28;20557;-71
2023/04/18 09:53:39;;;;;;;9.27;6.40;;;14.50;78.50;;;;;;5071888;28;20501;-71
2023/04/18 09:56:14;;;;;;;7.82;6.13;;;14.80;76.60;;;;;;5072122;28;20113;-70
2023/04/18 09:58:41;;;;;;;6.85;5.32;;;14.80;76.10;;;;;;5072077;28;20128;-71
2023/04/18 10:01:07;;;;;;;9.02;6.10;;;14.80;76.20;;;;;;5073530;28;20048;-71
2023/04/18 10:03:40;;;;;;;9.18;5.88;;;14.80;75.80;;;;;;5071787;28;20516;-70
2023/04/18 10:06:06;;;;;;;6.43;5.45;;;14.80;74.90;;;;;;5073041;28;20119;-71
2023/04/18 10:08:32;;;;;;;8.15;5.22;;;14.70;74.50;;;;;;5071960;28;20044;-71
2023/04/18 10:10:58;;;;;;;7.50;5.82;;;14.80;74.80;;;;;;5071766;28;20036;-71
2023/04/18 10:13:25;;;;;;;6.78;5.10;;;15.00;74.60;;;;;;5071682;28;20044;-71
2023/04/18 10:15:51;;;;;;;7.38;5.32;;;15.20;74.40;;;;;;5071954;28;20067;-71
2023/04/18 10:18:22;;;;;;;6.90;5.05;;;15.50;75.20;;;;;;5071628;28;20493;-71
2023/04/18 10:20:48;;;;;;;7.20;5.38;;;15.70;74.50;;;;;;5071496;28;20040;-71
2023/04/18 10:23:34;;;;;;;8.45;5.35;;;15.90;73.60;;;;;;5071512;28;20123;-71
2023/04/18 10:26:01;;;;;;;7.38;5.50;;;16.00;72.00;;;;;;5071539;28;20455;-71
2023/04/18 10:28:46;;;;;;;7.45;5.00;;;16.00;72.20;;;;;;5071512;28;20090;-71
2023/04/18 10:31:14;;;;;;;8.95;5.05;;;15.90;71.70;;;;;;5072543;28;20401;-70
2023/04/18 10:33:46;;;;;;;7.97;5.30;;;15.90;71.80;;;;;;5075392;28;20040;-70
2023/04/18 10:36:15;;;;;;;7.85;4.85;;;15.80;70.40;;;;;;5075459;28;20051;-70
2023/04/18 10:38:46;;;;;;;6.07;4.70;;;16.00;69.80;;;;;;5075605;28;20048;-71
2023/04/18 10:41:21;;;;;;;9.30;4.55;;;16.20;69.40;;;;;;5076461;28;20497;-70
2023/04/18 10:44:14;;;;;;;6.50;4.80;;;16.30;67.60;;;;;;5076739;28;20531;-71
2023/04/18 10:46:49;;;;;;;;;;;16.10;66.20;;;;;;5075642;28;20512;-71
2023/04/18 10:49:18;;;;;;;7.85;4.82;;;16.00;67.60;;;;;;5075172;28;20403;-71
2023/04/18 10:51:49;;;;;;;7.80;4.45;;;16.20;68.50;;;;;;5075273;28;20048;-71
2023/04/18 10:54:42;;;;;;;7.13;5.28;;;16.60;68.10;;;;;;5075016;28;20105;-71
2023/04/18 10:57:09;;;;;;;7.47;4.20;;;16.90;66.60;;;;;;5075197;28;20127;-71
2023/04/18 10:59:38;;;;;;;5.10;4.13;;;17.10;66.60;;;;;;5075194;28;20066;-71
2023/04/18 11:02:24;;;;;;;7.80;4.70;;;17.40;66.80;;;;;;5074804;28;20047;-70
2023/04/18 11:04:58;;;;;;;7.63;4.35;;;17.70;65.90;;;;;;5075152;28;20053;-71
2023/04/18 11:07:40;;;;;;;7.03;4.82;;;17.70;65.40;;;;;;5074823;28;20082;-71
2023/04/18 11:10:07;;;;;;;9.60;4.68;;;17.80;64.30;;;;;;5075101;28;20048;-71
2023/04/18 11:12:35;;;;;;;10.00;4.75;;;17.80;64.00;;;;;;5058001;28;20115;-71
2023/04/18 11:15:08;;;;;;;8.57;5.28;;;17.90;63.90;;;;;;5074659;28;20408;-70
2023/04/18 11:17:34;;;;;;;6.82;4.63;;;17.90;62.80;;;;;;5074876;28;20580;-70
2023/04/18 11:20:12;;;;;;;9.10;4.75;;;17.80;63.50;;;;;;5074572;28;20045;-71
2023/04/18 11:22:51;;;;;;;7.07;4.80;;;18.10;62.80;;;;;;5075852;28;20116;-71
2023/04/18 11:25:21;;;;;;;7.10;5.40;;;18.40;63.50;;;;;;5074514;28;20105;-71
2023/04/18 11:27:50;;;;;;;7.82;5.00;;;18.50;62.10;;;;;;5074430;28;20032;-71
2023/04/18 11:30:16;;;;;;;8.15;6.07;;;18.70;61.90;;;;;;5074635;28;20044;-71
2023/04/18 11:32:42;;;;;;;9.07;6.15;;;18.80;61.40;;;;;;5074511;28;20056;-70
2023/04/18 11:35:10;;;;;;;10.05;6.10;;;19.00;61.80;;;;;;5074572;28;20166;-71
2023/04/18 11:37:37;;;;;;;10.73;6.43;;;18.80;60.30;;;;;;5075717;28;20048;-71
2023/04/18 11:40:06;;;;;;;11.13;6.63;;;18.60;60.50;;;;;;5074231;28;20041;-71
2023/04/18 11:42:34;;;;;;;10.50;6.78;;;18.60;60.70;;;;;;5073565;28;20044;-71
2023/04/18 11:45:00;;;;;;;7.97;6.60;;;18.70;60.60;;;;;;5057446;28;20047;-71
2023/04/18 11:47:28;;;;;;;11.73;6.25;;;18.90;60.20;;;;;;5074084;28;20523;-71
2023/04/18 11:49:59;;;;;;;10.80;6.72;;;19.20;60.80;;;;;;5075264;28;20040;-71
2023/04/18 11:52:26;;;;;;;10.25;7.10;;;19.40;59.50;;;;;;5073906;28;20580;-71
2023/04/18 11:54:52;;;;;;;7.35;5.82;;;19.40;59.00;;;;;;5073901;28;20519;-71
2023/04/18 11:57:28;;;;;;;13.02;5.93;;;19.40;58.80;;;;;;5073718;28;20049;-71
2023/04/18 11:59:56;;;;;;;9.98;6.07;;;19.50;58.80;;;;;;5073921;28;20076;-71
2023/04/18 12:02:24;;;;;;;10.48;6.00;;;19.80;58.70;;;;;;5073675;28;20055;-70
2023/04/18 12:04:55;;;;;;;10.95;6.45;;;19.70;57.60;;;;;;5073997;28;20080;-71
2023/04/18 12:07:30;;;;;;;10.57;6.38;;;19.80;57.40;;;;;;5073707;28;20033;-71
2023/04/18 12:09:56;;;;;;;7.72;6.18;;;19.90;57.20;;;;;;5073625;28;20040;-71
2023/04/18 12:12:21;;;;;;;9.93;6.50;;;19.90;56.60;;;;;;5074798;28;20035;-71
2023/04/18 12:14:47;;;;;;;9.93;6.25;;;19.90;56.60;;;;;;5073535;28;20513;-70
2023/04/18 12:17:13;;;;;;;7.82;6.28;;;19.80;55.90;;;;;;5075246;28;20076;-71
2023/04/18 12:19:44;;;;;;;11.00;6.45;;;20.00;55.90;;;;;;5073647;28;20047;-71
2023/04/18 12:22:09;;;;;;;12.23;5.43;;;20.00;55.00;;;;;;5073337;28;20468;-71
2023/04/18 12:24:36;;;;;;;7.63;6.40;;;20.00;55.40;;;;;;5073236;28;20080;-71
2023/04/18 12:27:02;;;;;;;10.13;5.97;;;20.00;54.40;;;;;;5073604;28;20044;-71
2023/04/18 12:29:28;;;;;;;7.97;6.85;;;20.10;54.50;;;;;;5073452;28;20045;-71
2023/04/18 12:31:54;;;;;;;8.65;5.97;;;20.00;54.70;;;;;;5074634;28;20033;-71
2023/04/18 12:34:20;;;;;;;11.48;6.13;;;20.10;54.50;;;;;;5074396;28;20094;-71
2023/04/18 12:36:46;;;;;;;10.63;6.85;;;20.00;54.30;;;;;;5073346;28;20040;-71
2023/04/18 12:39:11;;;;;;;8.07;6.13;;;20.00;53.90;;;;;;5074300;28;20516;-71
2023/04/18 12:41:37;;;;;;;10.05;6.60;;;19.90;53.70;;;;;;5074233;28;20554;-71
2023/04/18 12:44:03;;;;;;;10.63;6.55;;;20.00;53.70;;;;;;5072856;28;20536;-71
2023/04/18 12:46:28;;;;;;;8.85;6.53;;;20.00;53.90;;;;;;5072911;28;20179;-71